createdAt,value
2022-08-12T00:00:13.709Z,0.00
2022-08-12T00:01:13.666Z,0.00
2022-08-12T00:02:13.619Z,0.00
2022-08-12T00:03:13.668Z,0.00
2022-08-12T00:04:13.535Z,0.00
2022-08-12T00:05:13.475Z,0.00
2022-08-12T00:06:13.425Z,0.00
2022-08-12T00:07:13.380Z,0.00
2022-08-12T00:08:13.329Z,0.00
2022-08-12T00:09:13.285Z,0.00
2022-08-12T00:10:13.250Z,0.00
2022-08-12T00:11:13.191Z,0.00
2022-08-12T00:12:13.157Z,0.00
2022-08-12T00:13:13.105Z,0.00
2022-08-12T00:14:13.045Z,0.00
2022-08-12T00:15:13.000Z,0.00
2022-08-12T00:16:12.952Z,0.00
2022-08-12T00:17:12.905Z,0.00
2022-08-12T00:18:12.857Z,0.00
2022-08-12T00:19:12.833Z,0.00
2022-08-12T00:20:12.779Z,0.00
2022-08-12T00:21:12.715Z,0.00
2022-08-12T00:22:12.667Z,0.00
2022-08-12T00:23:12.621Z,0.00
2022-08-12T00:24:12.750Z,0.00
2022-08-12T00:25:12.527Z,0.00
2022-08-12T00:26:21.573Z,0.00
2022-08-12T00:27:12.441Z,0.00
2022-08-12T00:28:12.382Z,0.00
2022-08-12T00:29:12.442Z,0.00
2022-08-12T00:30:12.284Z,0.00
2022-08-12T00:31:12.239Z,0.00
2022-08-12T00:32:13.475Z,0.00
2022-08-12T00:33:12.144Z,0.00
2022-08-12T00:34:12.094Z,0.00
2022-08-12T00:35:12.049Z,0.00
2022-08-12T00:36:18.663Z,0.00
2022-08-12T00:37:13.348Z,0.00
2022-08-12T00:38:11.904Z,0.00
2022-08-12T00:39:11.891Z,0.00
2022-08-12T00:40:12.145Z,0.00
2022-08-12T00:41:11.763Z,0.00
2022-08-12T00:42:11.764Z,0.00
2022-08-12T00:43:11.668Z,0.00
2022-08-12T00:44:11.618Z,0.00
2022-08-12T00:45:11.570Z,0.00
2022-08-12T00:46:11.533Z,0.00
2022-08-12T00:47:24.565Z,0.00
2022-08-12T00:48:11.427Z,0.00
2022-08-12T00:49:11.381Z,0.00
2022-08-12T00:50:11.330Z,0.00
2022-08-12T00:51:11.288Z,0.00
2022-08-12T00:52:11.243Z,0.00
2022-08-12T00:53:11.189Z,0.00
2022-08-12T00:54:11.140Z,0.00
2022-08-12T00:55:11.098Z,0.00
2022-08-12T00:56:11.045Z,0.00
2022-08-12T00:57:10.999Z,0.00
2022-08-12T00:58:10.951Z,0.00
2022-08-12T00:59:10.905Z,0.00
2022-08-12T01:00:10.856Z,0.00
2022-08-12T01:01:10.904Z,0.00
2022-08-12T01:02:12.626Z,0.00
2022-08-12T01:03:10.713Z,0.00
2022-08-12T01:04:10.664Z,0.00
2022-08-12T01:05:10.618Z,0.00
2022-08-12T01:06:10.567Z,0.00
2022-08-12T01:07:10.522Z,0.00
2022-08-12T01:08:10.472Z,0.00
2022-08-12T01:09:10.425Z,0.00
2022-08-12T01:10:10.377Z,0.00
2022-08-12T01:11:10.333Z,0.00
2022-08-12T01:12:10.278Z,0.00
2022-08-12T01:13:19.041Z,0.00
2022-08-12T01:14:10.183Z,0.00
2022-08-12T01:15:10.137Z,0.00
2022-08-12T01:16:10.094Z,0.00
2022-08-12T01:17:10.042Z,0.00
2022-08-12T01:18:09.992Z,0.00
2022-08-12T01:19:09.945Z,0.00
2022-08-12T01:20:09.896Z,0.00
2022-08-12T01:21:09.848Z,0.00
2022-08-12T01:22:09.807Z,0.00
2022-08-12T01:23:09.754Z,0.00
2022-08-12T01:24:29.446Z,0.00
2022-08-12T01:25:09.659Z,0.00
2022-08-12T01:26:09.607Z,0.00
2022-08-12T01:27:09.562Z,0.00
2022-08-12T01:28:09.510Z,0.00
2022-08-12T01:29:09.466Z,0.00
2022-08-12T01:30:09.417Z,0.00
2022-08-12T01:31:11.300Z,0.00
2022-08-12T01:32:09.319Z,0.00
2022-08-12T01:33:09.274Z,0.00
2022-08-12T01:34:28.546Z,0.00
2022-08-12T01:35:09.177Z,0.00
2022-08-12T01:36:09.129Z,0.00
2022-08-12T01:37:09.088Z,0.00
2022-08-12T01:38:09.031Z,0.00
2022-08-12T01:39:08.985Z,0.00
2022-08-12T01:40:34.146Z,0.00
2022-08-12T01:41:08.908Z,0.00
2022-08-12T01:42:08.843Z,0.00
2022-08-12T01:43:08.793Z,0.00
2022-08-12T01:44:08.747Z,0.00
2022-08-12T01:45:08.697Z,0.00
2022-08-12T01:46:08.648Z,0.00
2022-08-12T01:47:08.600Z,0.00
2022-08-12T01:48:08.549Z,0.00
2022-08-12T01:49:08.502Z,0.00
2022-08-12T01:50:08.454Z,0.00
2022-08-12T01:51:08.408Z,0.00
2022-08-12T01:52:20.959Z,0.00
2022-08-12T01:53:08.324Z,0.00
2022-08-12T01:54:08.275Z,0.00
2022-08-12T01:55:08.212Z,0.00
2022-08-12T01:56:08.169Z,0.00
2022-08-12T01:57:08.118Z,0.00
2022-08-12T01:58:08.066Z,0.00
2022-08-12T01:59:08.020Z,0.00
2022-08-12T02:00:07.971Z,0.00
2022-08-12T02:01:07.958Z,0.00
2022-08-12T02:02:07.903Z,0.00
2022-08-12T02:03:07.826Z,0.00
2022-08-12T02:04:07.777Z,0.00
2022-08-12T02:05:07.730Z,0.00
2022-08-12T02:06:07.683Z,0.00
2022-08-12T02:07:07.634Z,0.00
2022-08-12T02:08:07.586Z,0.00
2022-08-12T02:09:07.541Z,0.00
2022-08-12T02:10:07.488Z,0.00
2022-08-12T02:11:07.441Z,0.00
2022-08-12T02:12:08.718Z,0.00
2022-08-12T02:13:07.342Z,0.00
2022-08-12T02:14:07.293Z,0.00
2022-08-12T02:15:07.248Z,0.00
2022-08-12T02:16:07.195Z,0.00
2022-08-12T02:17:07.149Z,0.00
2022-08-12T02:18:07.100Z,0.00
2022-08-12T02:19:21.944Z,0.00
2022-08-12T02:20:07.002Z,0.00
2022-08-12T02:21:06.957Z,0.00
2022-08-12T02:22:06.908Z,0.00
2022-08-12T02:23:06.859Z,0.00
2022-08-12T02:24:06.808Z,0.00
2022-08-12T02:25:06.762Z,0.00
2022-08-12T02:26:07.657Z,0.00
2022-08-12T02:27:07.660Z,0.00
2022-08-12T02:28:08.240Z,0.00
2022-08-12T02:29:08.164Z,0.00
2022-08-12T02:30:08.160Z,0.00
2022-08-12T02:31:06.489Z,0.00
2022-08-12T02:32:06.422Z,0.00
2022-08-12T02:33:06.377Z,0.00
2022-08-12T02:34:06.324Z,0.00
2022-08-12T02:35:06.277Z,0.00
2022-08-12T02:36:06.228Z,0.00
2022-08-12T02:37:06.179Z,0.00
2022-08-12T02:38:06.129Z,0.00
2022-08-12T02:39:06.082Z,0.00
2022-08-12T02:40:06.033Z,0.00
2022-08-12T02:41:06.026Z,0.00
2022-08-12T02:42:05.935Z,0.00
2022-08-12T02:43:05.890Z,0.00
2022-08-12T02:44:05.839Z,0.00
2022-08-12T02:45:05.790Z,0.00
2022-08-12T02:46:08.307Z,0.00
2022-08-12T02:47:05.696Z,0.00
2022-08-12T02:48:05.642Z,0.00
2022-08-12T02:49:05.600Z,0.00
2022-08-12T02:50:05.546Z,0.00
2022-08-12T02:51:05.498Z,0.00
2022-08-12T02:52:05.450Z,0.00
2022-08-12T02:53:05.402Z,0.00
2022-08-12T02:54:06.318Z,0.00
2022-08-12T02:55:05.306Z,0.00
2022-08-12T02:56:05.253Z,0.00
2022-08-12T02:57:05.206Z,0.00
2022-08-12T02:58:06.880Z,0.00
2022-08-12T02:59:05.114Z,0.00
2022-08-12T03:00:05.059Z,0.00
2022-08-12T03:01:05.113Z,0.00
2022-08-12T03:02:04.963Z,0.00
2022-08-12T03:03:04.920Z,0.00
2022-08-12T03:04:04.863Z,0.00
2022-08-12T03:05:04.817Z,0.00
2022-08-12T03:06:04.768Z,0.00
2022-08-12T03:07:04.718Z,0.00
2022-08-12T03:08:04.668Z,0.00
2022-08-12T03:09:05.448Z,0.00
2022-08-12T03:10:06.975Z,0.00
2022-08-12T03:11:04.526Z,0.00
2022-08-12T03:12:04.472Z,0.00
2022-08-12T03:13:04.432Z,0.00
2022-08-12T03:14:04.379Z,0.00
2022-08-12T03:15:04.329Z,0.00
2022-08-12T03:16:04.280Z,0.00
2022-08-12T03:17:04.230Z,0.00
2022-08-12T03:18:25.487Z,0.00
2022-08-12T03:19:04.143Z,0.00
2022-08-12T03:20:09.700Z,0.00
2022-08-12T03:21:04.158Z,0.00
2022-08-12T03:22:09.420Z,0.00
2022-08-12T03:23:03.939Z,0.00
2022-08-12T03:24:03.887Z,0.00
2022-08-12T03:25:03.840Z,0.00
2022-08-12T03:26:03.789Z,0.00
2022-08-12T03:27:03.743Z,0.00
2022-08-12T03:28:03.693Z,0.00
2022-08-12T03:29:03.645Z,0.00
2022-08-12T03:30:03.594Z,0.00
2022-08-12T03:31:03.548Z,0.00
2022-08-12T03:32:03.496Z,0.00
2022-08-12T03:33:03.451Z,0.00
2022-08-12T03:34:03.598Z,0.00
2022-08-12T03:35:03.354Z,0.00
2022-08-12T03:36:03.303Z,0.00
2022-08-12T03:37:03.253Z,0.00
2022-08-12T03:38:03.205Z,0.00
2022-08-12T03:39:03.156Z,0.00
2022-08-12T03:40:03.163Z,0.00
2022-08-12T03:41:03.056Z,0.00
2022-08-12T03:42:03.008Z,0.00
2022-08-12T03:43:02.961Z,0.00
2022-08-12T03:44:02.911Z,0.00
2022-08-12T03:45:02.860Z,0.00
2022-08-12T03:46:02.814Z,0.00
2022-08-12T03:47:02.761Z,0.00
2022-08-12T03:48:02.714Z,0.00
2022-08-12T03:49:02.664Z,0.00
2022-08-12T03:50:02.615Z,0.00
2022-08-12T03:51:02.566Z,0.00
2022-08-12T03:52:02.516Z,0.00
2022-08-12T03:53:02.469Z,0.00
2022-08-12T03:54:02.419Z,0.00
2022-08-12T03:55:02.372Z,0.00
2022-08-12T03:56:02.323Z,0.00
2022-08-12T03:57:02.272Z,0.00
2022-08-12T03:58:02.229Z,0.00
2022-08-12T03:59:02.175Z,0.00
2022-08-12T04:00:02.125Z,0.00
2022-08-12T04:01:02.177Z,0.00
2022-08-12T04:02:02.026Z,0.00
2022-08-12T04:03:02.036Z,0.00
2022-08-12T04:04:01.929Z,0.00
2022-08-12T04:05:01.877Z,0.00
2022-08-12T04:06:01.834Z,0.00
2022-08-12T04:07:01.782Z,0.00
2022-08-12T04:08:01.736Z,0.00
2022-08-12T04:09:01.681Z,0.00
2022-08-12T04:10:01.638Z,0.00
2022-08-12T04:11:01.583Z,0.00
2022-08-12T04:12:01.537Z,0.00
2022-08-12T04:13:01.484Z,0.00
2022-08-12T04:14:01.437Z,0.00
2022-08-12T04:15:01.388Z,0.00
2022-08-12T04:16:01.338Z,0.00
2022-08-12T04:17:01.290Z,0.00
2022-08-12T04:18:07.028Z,0.00
2022-08-12T04:19:01.190Z,0.00
2022-08-12T04:20:01.151Z,0.00
2022-08-12T04:21:01.091Z,0.00
2022-08-12T04:22:03.331Z,0.00
2022-08-12T04:23:00.994Z,0.00
2022-08-12T04:24:00.947Z,0.00
2022-08-12T04:25:00.892Z,0.00
2022-08-12T04:26:00.849Z,0.00
2022-08-12T04:27:00.796Z,0.00
2022-08-12T04:28:11.190Z,0.00
2022-08-12T04:29:00.696Z,0.00
2022-08-12T04:30:31.171Z,0.00
2022-08-12T04:31:00.597Z,0.00
2022-08-12T04:32:00.550Z,0.00
2022-08-12T04:33:00.499Z,0.00
2022-08-12T04:34:00.451Z,0.00
2022-08-12T04:35:00.400Z,0.00
2022-08-12T04:36:00.353Z,0.00
2022-08-12T04:37:00.304Z,0.00
2022-08-12T04:38:01.108Z,0.00
2022-08-12T04:39:00.202Z,0.00
2022-08-12T04:40:00.182Z,0.00
2022-08-12T04:41:00.106Z,0.00
2022-08-12T04:42:00.059Z,4.00
2022-08-12T04:43:00.005Z,4.00
2022-08-12T04:44:02.101Z,4.00
2022-08-12T04:44:59.913Z,0.00
2022-08-12T04:45:59.859Z,0.00
2022-08-12T04:46:59.808Z,0.00
2022-08-12T04:47:59.760Z,0.00
2022-08-12T04:48:59.710Z,0.00
2022-08-12T04:49:59.663Z,0.00
2022-08-12T04:51:10.212Z,4.00
2022-08-12T04:51:59.795Z,4.00
2022-08-12T04:52:59.510Z,4.00
2022-08-12T04:54:14.200Z,4.00
2022-08-12T04:54:59.414Z,4.00
2022-08-12T04:55:59.364Z,4.00
2022-08-12T04:57:04.846Z,0.00
2022-08-12T04:57:59.278Z,0.00
2022-08-12T04:58:59.213Z,4.00
2022-08-12T04:59:59.165Z,4.00
2022-08-12T05:00:59.114Z,4.00
2022-08-12T05:01:59.153Z,4.00
2022-08-12T05:02:59.157Z,4.00
2022-08-12T05:03:58.969Z,4.00
2022-08-12T05:05:00.602Z,4.00
2022-08-12T05:05:58.868Z,4.00
2022-08-12T05:06:58.819Z,4.00
2022-08-12T05:07:58.769Z,4.00
2022-08-12T05:08:58.722Z,4.00
2022-08-12T05:09:59.715Z,4.00
2022-08-12T05:10:58.656Z,8.00
2022-08-12T05:11:58.571Z,4.00
2022-08-12T05:12:58.520Z,4.00
2022-08-12T05:13:58.471Z,4.00
2022-08-12T05:14:58.421Z,4.00
2022-08-12T05:16:05.246Z,8.00
2022-08-12T05:16:58.323Z,8.00
2022-08-12T05:18:00.043Z,8.00
2022-08-12T05:18:58.223Z,8.00
2022-08-12T05:19:58.203Z,8.00
2022-08-12T05:20:58.122Z,8.00
2022-08-12T05:21:58.076Z,8.00
2022-08-12T05:23:01.071Z,8.00
2022-08-12T05:24:02.722Z,8.00
2022-08-12T05:24:57.930Z,12.00
2022-08-12T05:25:57.880Z,12.00
2022-08-12T05:26:57.826Z,8.00
2022-08-12T05:27:58.473Z,8.00
2022-08-12T05:28:57.726Z,8.00
2022-08-12T05:30:12.208Z,8.00
2022-08-12T05:30:57.629Z,12.00
2022-08-12T05:31:57.579Z,12.00
2022-08-12T05:33:00.331Z,12.00
2022-08-12T05:33:57.480Z,12.00
2022-08-12T05:34:57.431Z,12.00
2022-08-12T05:35:57.388Z,8.00
2022-08-12T05:36:57.333Z,8.00
2022-08-12T05:37:57.282Z,8.00
2022-08-12T05:38:57.234Z,12.00
2022-08-12T05:39:57.311Z,12.00
2022-08-12T05:40:57.130Z,12.00
2022-08-12T05:41:57.083Z,12.00
2022-08-12T05:42:57.032Z,12.00
2022-08-12T05:43:56.984Z,12.00
2022-08-12T05:44:56.934Z,12.00
2022-08-12T05:45:56.888Z,12.00
2022-08-12T05:46:56.834Z,12.00
2022-08-12T05:47:56.785Z,12.00
2022-08-12T05:48:56.736Z,12.00
2022-08-12T05:49:56.687Z,12.00
2022-08-12T05:50:56.637Z,12.00
2022-08-12T05:51:56.587Z,12.00
2022-08-12T05:52:56.537Z,12.00
2022-08-12T05:53:56.487Z,12.00
2022-08-12T05:54:57.751Z,12.00
2022-08-12T05:55:56.387Z,16.00
2022-08-12T05:56:56.338Z,16.00
2022-08-12T05:57:56.288Z,12.00
2022-08-12T05:58:56.242Z,12.00
2022-08-12T05:59:56.256Z,12.00
2022-08-12T06:00:56.140Z,12.00
2022-08-12T06:02:11.560Z,12.00
2022-08-12T06:02:56.079Z,12.00
2022-08-12T06:03:55.996Z,12.00
2022-08-12T06:04:55.940Z,16.00
2022-08-12T06:05:55.963Z,16.00
2022-08-12T06:06:55.849Z,16.00
2022-08-12T06:08:01.284Z,16.00
2022-08-12T06:08:55.741Z,16.00
2022-08-12T06:09:55.810Z,16.00
2022-08-12T06:10:55.647Z,12.00
2022-08-12T06:12:06.235Z,12.00
2022-08-12T06:12:55.547Z,12.00
2022-08-12T06:13:55.497Z,16.00
2022-08-12T06:14:55.443Z,16.00
2022-08-12T06:15:55.395Z,16.00
2022-08-12T06:16:55.355Z,16.00
2022-08-12T06:17:55.303Z,16.00
2022-08-12T06:18:55.247Z,16.00
2022-08-12T06:20:27.566Z,16.00
2022-08-12T06:20:55.149Z,16.00
2022-08-12T06:21:55.098Z,16.00
2022-08-12T06:22:55.256Z,12.00
2022-08-12T06:23:55.000Z,16.00
2022-08-12T06:24:54.956Z,16.00
2022-08-12T06:25:54.902Z,16.00
2022-08-12T06:26:54.850Z,16.00
2022-08-12T06:28:07.624Z,16.00
2022-08-12T06:28:54.752Z,16.00
2022-08-12T06:30:09.311Z,16.00
2022-08-12T06:31:22.603Z,16.00
2022-08-12T06:31:54.603Z,16.00
2022-08-12T06:33:11.296Z,16.00
2022-08-12T06:33:59.464Z,20.00
2022-08-12T06:35:25.936Z,20.00
2022-08-12T06:35:57.506Z,20.00
2022-08-12T06:36:54.357Z,20.00
2022-08-12T06:37:56.406Z,16.00
2022-08-12T06:38:54.257Z,16.00
2022-08-12T06:39:54.232Z,16.00
2022-08-12T06:40:54.160Z,16.00
2022-08-12T06:42:05.138Z,16.00
2022-08-12T06:42:54.059Z,16.00
2022-08-12T06:44:04.864Z,16.00
2022-08-12T06:44:53.960Z,20.00
2022-08-12T06:45:53.915Z,20.00
2022-08-12T06:46:53.863Z,20.00
2022-08-12T06:47:53.812Z,20.00
2022-08-12T06:48:53.762Z,20.00
2022-08-12T06:49:53.714Z,20.00
2022-08-12T06:50:53.670Z,20.00
2022-08-12T06:51:56.202Z,20.00
2022-08-12T06:52:53.564Z,20.00
2022-08-12T06:53:53.516Z,16.00
2022-08-12T06:54:53.465Z,16.00
2022-08-12T06:55:58.205Z,16.00
2022-08-12T06:57:57.848Z,20.00
2022-08-12T06:58:05.070Z,20.00
2022-08-12T06:58:53.268Z,20.00
2022-08-12T06:59:53.219Z,20.00
2022-08-12T07:00:53.270Z,20.00
2022-08-12T07:01:53.123Z,20.00
2022-08-12T07:02:53.072Z,20.00
2022-08-12T07:03:53.023Z,20.00
2022-08-12T07:04:52.971Z,20.00
2022-08-12T07:05:52.926Z,20.00
2022-08-12T07:06:52.874Z,20.00
2022-08-12T07:07:52.826Z,20.00
2022-08-12T07:08:52.776Z,20.00
2022-08-12T07:09:58.121Z,20.00
2022-08-12T07:10:52.681Z,20.00
2022-08-12T07:11:52.632Z,20.00
2022-08-12T07:12:52.578Z,20.00
2022-08-12T07:14:11.506Z,20.00
2022-08-12T07:14:52.479Z,20.00
2022-08-12T07:16:07.239Z,20.00
2022-08-12T07:16:52.386Z,20.00
2022-08-12T07:17:52.335Z,20.00
2022-08-12T07:18:52.284Z,20.00
2022-08-12T07:19:52.253Z,20.00
2022-08-12T07:20:53.417Z,24.00
2022-08-12T07:21:59.789Z,24.00
2022-08-12T07:22:52.086Z,24.00
2022-08-12T07:23:52.039Z,24.00
2022-08-12T07:24:51.991Z,24.00
2022-08-12T07:25:55.211Z,20.00
2022-08-12T07:26:51.890Z,20.00
2022-08-12T07:27:51.847Z,20.00
2022-08-12T07:28:51.791Z,20.00
2022-08-12T07:30:03.576Z,20.00
2022-08-12T07:30:51.696Z,20.00
2022-08-12T07:31:51.647Z,20.00
2022-08-12T07:32:51.662Z,20.00
2022-08-12T07:33:51.547Z,20.00
2022-08-12T07:34:51.498Z,20.00
2022-08-12T07:35:51.450Z,24.00
2022-08-12T07:36:51.398Z,24.00
2022-08-12T07:37:51.352Z,24.00
2022-08-12T07:38:51.301Z,24.00
2022-08-12T07:40:00.280Z,24.00
2022-08-12T07:40:51.202Z,24.00
2022-08-12T07:41:51.160Z,24.00
2022-08-12T07:42:51.157Z,24.00
2022-08-12T07:43:51.058Z,24.00
2022-08-12T07:44:51.832Z,24.00
2022-08-12T07:45:50.958Z,24.00
2022-08-12T07:46:50.909Z,24.00
2022-08-12T07:47:50.964Z,24.00
2022-08-12T07:48:50.810Z,24.00
2022-08-12T07:50:05.373Z,24.00
2022-08-12T07:50:50.723Z,20.00
2022-08-12T07:51:50.666Z,20.00
2022-08-12T07:52:50.614Z,20.00
2022-08-12T07:54:00.418Z,24.00
2022-08-12T07:54:50.517Z,24.00
2022-08-12T07:55:50.469Z,24.00
2022-08-12T07:56:50.419Z,24.00
2022-08-12T07:57:50.372Z,24.00
2022-08-12T07:58:50.324Z,24.00
2022-08-12T07:59:50.273Z,24.00
2022-08-12T08:00:50.227Z,24.00
2022-08-12T08:01:50.201Z,24.00
2022-08-12T08:02:50.129Z,24.00
2022-08-12T08:03:50.076Z,24.00
2022-08-12T08:04:50.028Z,24.00
2022-08-12T08:05:49.979Z,24.00
2022-08-12T08:06:49.950Z,24.00
2022-08-12T08:07:49.881Z,24.00
2022-08-12T08:08:49.836Z,24.00
2022-08-12T08:09:49.784Z,24.00
2022-08-12T08:10:49.738Z,24.00
2022-08-12T08:11:49.686Z,24.00
2022-08-12T08:12:49.638Z,24.00
2022-08-12T08:13:49.591Z,24.00
2022-08-12T08:14:50.203Z,24.00
2022-08-12T08:16:02.932Z,24.00
2022-08-12T08:16:49.444Z,24.00
2022-08-12T08:17:49.394Z,28.00
2022-08-12T08:18:49.347Z,24.00
2022-08-12T08:20:03.894Z,28.00
2022-08-12T08:20:49.250Z,24.00
2022-08-12T08:21:49.200Z,24.00
2022-08-12T08:22:49.152Z,24.00
2022-08-12T08:23:56.069Z,24.00
2022-08-12T08:24:49.057Z,24.00
2022-08-12T08:25:49.004Z,24.00
2022-08-12T08:26:48.957Z,24.00
2022-08-12T08:27:48.907Z,24.00
2022-08-12T08:28:48.861Z,24.00
2022-08-12T08:29:48.809Z,24.00
2022-08-12T08:30:50.505Z,24.00
2022-08-12T08:31:48.711Z,24.00
2022-08-12T08:32:48.663Z,28.00
2022-08-12T08:34:05.182Z,28.00
2022-08-12T08:34:54.030Z,28.00
2022-08-12T08:35:48.518Z,28.00
2022-08-12T08:36:48.469Z,28.00
2022-08-12T08:37:48.426Z,28.00
2022-08-12T08:38:58.079Z,28.00
2022-08-12T08:39:48.422Z,28.00
2022-08-12T08:40:48.276Z,28.00
2022-08-12T08:42:18.108Z,28.00
2022-08-12T08:42:51.244Z,28.00
2022-08-12T08:43:48.129Z,28.00
2022-08-12T08:44:50.375Z,28.00
2022-08-12T08:45:48.031Z,28.00
2022-08-12T08:46:47.987Z,24.00
2022-08-12T08:47:47.947Z,24.00
2022-08-12T08:48:47.892Z,24.00
2022-08-12T08:49:47.837Z,24.00
2022-08-12T08:50:47.790Z,24.00
2022-08-12T08:51:47.739Z,24.00
2022-08-12T08:52:47.859Z,24.00
2022-08-12T08:53:52.814Z,28.00
2022-08-12T08:54:47.597Z,28.00
2022-08-12T08:56:04.038Z,28.00
2022-08-12T08:56:47.499Z,28.00
2022-08-12T08:57:47.482Z,28.00
2022-08-12T08:58:47.403Z,28.00
2022-08-12T08:59:51.881Z,28.00
2022-08-12T09:00:47.672Z,28.00
2022-08-12T09:01:47.313Z,28.00
2022-08-12T09:02:49.033Z,28.00
2022-08-12T09:05:07.307Z,28.00
2022-08-12T09:06:02.238Z,28.00
2022-08-12T09:06:53.397Z,28.00
2022-08-12T09:07:51.821Z,28.00
2022-08-12T09:08:46.922Z,28.00
2022-08-12T09:10:47.234Z,28.00
2022-08-12T09:12:54.249Z,28.00
2022-08-12T09:14:11.253Z,28.00
2022-08-12T09:14:50.985Z,28.00
2022-08-12T09:15:55.755Z,28.00
2022-08-12T09:16:50.088Z,32.00
2022-08-12T09:17:46.483Z,28.00
2022-08-12T09:18:46.437Z,28.00
2022-08-12T09:19:46.385Z,28.00
2022-08-12T09:20:50.748Z,28.00
2022-08-12T09:21:55.119Z,32.00
2022-08-12T09:22:46.928Z,28.00
2022-08-12T09:23:59.229Z,28.00
2022-08-12T09:24:46.185Z,28.00
2022-08-12T09:25:48.387Z,28.00
2022-08-12T09:26:46.888Z,28.00
2022-08-12T09:28:04.208Z,28.00
2022-08-12T09:30:11.379Z,28.00
2022-08-12T09:30:45.860Z,32.00
2022-08-12T09:32:07.499Z,32.00
2022-08-12T09:33:04.144Z,28.00
2022-08-12T09:34:28.388Z,28.00
2022-08-12T09:34:50.732Z,28.00
2022-08-12T09:35:46.224Z,28.00
2022-08-12T09:36:57.869Z,28.00
2022-08-12T09:37:57.583Z,28.00
2022-08-12T09:38:59.097Z,28.00
2022-08-12T09:40:07.902Z,32.00
2022-08-12T09:40:57.045Z,28.00
2022-08-12T09:42:34.886Z,28.00
2022-08-12T09:42:54.155Z,28.00
2022-08-12T09:43:46.780Z,28.00
2022-08-12T09:44:45.236Z,28.00
2022-08-12T09:46:11.275Z,28.00
2022-08-12T09:46:45.158Z,28.00
2022-08-12T09:47:45.037Z,28.00
2022-08-12T09:48:56.446Z,28.00
2022-08-12T09:49:44.944Z,28.00
2022-08-12T09:50:50.603Z,32.00
2022-08-12T09:51:44.848Z,32.00
2022-08-12T09:52:45.631Z,32.00
2022-08-12T09:53:45.809Z,32.00
2022-08-12T09:54:44.703Z,32.00
2022-08-12T09:56:06.259Z,32.00
2022-08-12T09:57:00.513Z,32.00
2022-08-12T09:58:45.199Z,32.00
2022-08-12T09:58:58.289Z,28.00
2022-08-12T10:00:16.222Z,28.00
2022-08-12T10:00:51.725Z,28.00
2022-08-12T10:02:45.303Z,28.00
2022-08-12T10:02:49.857Z,28.00
2022-08-12T10:04:03.741Z,28.00
2022-08-12T10:04:51.587Z,32.00
2022-08-12T10:06:27.575Z,32.00
2022-08-12T10:06:54.758Z,32.00
2022-08-12T10:07:44.079Z,32.00
2022-08-12T10:08:44.033Z,32.00
2022-08-12T10:09:57.197Z,32.00
2022-08-12T10:10:43.942Z,32.00
2022-08-12T10:12:10.287Z,32.00
2022-08-12T10:13:07.028Z,32.00
2022-08-12T10:13:43.789Z,28.00
2022-08-12T10:14:50.086Z,32.00
2022-08-12T10:16:01.851Z,32.00
2022-08-12T10:16:43.653Z,40.00
2022-08-12T10:18:06.193Z,48.00
2022-08-12T10:18:51.174Z,44.00
2022-08-12T10:19:51.556Z,40.00
2022-08-12T10:20:43.459Z,48.00
2022-08-12T10:21:43.413Z,32.00
2022-08-12T10:22:43.362Z,32.00
2022-08-12T10:23:45.961Z,28.00
2022-08-12T10:24:43.266Z,8.00
2022-08-12T10:26:35.118Z,12.00
2022-08-12T10:26:43.170Z,16.00
2022-08-12T10:28:04.563Z,32.00
2022-08-12T10:28:43.075Z,32.00
2022-08-12T10:30:37.613Z,32.00
2022-08-12T10:30:46.958Z,28.00
2022-08-12T10:32:19.569Z,28.00
2022-08-12T10:33:02.543Z,28.00
2022-08-12T10:33:55.631Z,28.00
2022-08-12T10:34:53.735Z,28.00
2022-08-12T10:35:42.738Z,32.00
2022-08-12T10:36:44.267Z,28.00
2022-08-12T10:38:33.964Z,28.00
2022-08-12T10:38:44.109Z,32.00
2022-08-12T10:40:01.090Z,32.00
2022-08-12T10:40:42.555Z,32.00
2022-08-12T10:41:58.309Z,32.00
2022-08-12T10:42:45.971Z,32.00
2022-08-12T10:43:55.387Z,32.00
2022-08-12T10:44:42.329Z,32.00
2022-08-12T10:45:42.265Z,28.00
2022-08-12T10:46:42.219Z,32.00
2022-08-12T10:48:15.842Z,32.00
2022-08-12T10:48:42.122Z,32.00
2022-08-12T10:50:03.694Z,32.00
2022-08-12T10:51:00.837Z,32.00
2022-08-12T10:52:04.571Z,32.00
2022-08-12T10:52:41.932Z,32.00
2022-08-12T10:53:45.908Z,28.00
2022-08-12T10:54:41.839Z,28.00
2022-08-12T10:55:41.788Z,32.00
2022-08-12T10:56:41.743Z,32.00
2022-08-12T10:58:15.462Z,32.00
2022-08-12T10:58:46.813Z,32.00
2022-08-12T11:00:31.927Z,32.00
2022-08-12T11:00:54.973Z,32.00
2022-08-12T11:04:18.180Z,32.00
2022-08-12T11:04:19.881Z,32.00
2022-08-12T11:04:23.465Z,32.00
2022-08-12T11:04:49.231Z,32.00
2022-08-12T11:07:03.390Z,32.00
2022-08-12T11:07:05.240Z,32.00
2022-08-12T11:08:37.114Z,36.00
2022-08-12T11:08:42.949Z,36.00
2022-08-12T11:09:55.757Z,40.00
2022-08-12T11:10:41.115Z,40.00
2022-08-12T11:12:35.931Z,36.00
2022-08-12T11:13:00.024Z,32.00
2022-08-12T11:13:46.952Z,32.00
2022-08-12T11:14:50.238Z,32.00
2022-08-12T11:16:19.382Z,36.00
2022-08-12T11:16:40.790Z,36.00
2022-08-12T11:17:52.838Z,32.00
2022-08-12T11:18:40.694Z,36.00
2022-08-12T11:19:40.647Z,36.00
2022-08-12T11:20:40.600Z,36.00
2022-08-12T11:21:58.456Z,36.00
2022-08-12T11:22:40.646Z,36.00
2022-08-12T11:23:40.457Z,40.00
2022-08-12T11:24:40.412Z,40.00
2022-08-12T11:25:56.572Z,40.00
2022-08-12T11:26:40.316Z,44.00
2022-08-12T11:27:40.481Z,44.00
2022-08-12T11:28:40.221Z,40.00
2022-08-12T11:30:05.702Z,48.00
2022-08-12T11:30:40.125Z,48.00
2022-08-12T11:31:56.378Z,48.00
2022-08-12T11:32:40.031Z,52.00
2022-08-12T11:34:05.100Z,52.00
2022-08-12T11:34:53.691Z,56.00
2022-08-12T11:35:39.887Z,44.00
2022-08-12T11:36:40.811Z,20.00
2022-08-12T11:37:58.140Z,44.00
2022-08-12T11:38:39.716Z,20.00
2022-08-12T11:40:42.627Z,16.00
2022-08-12T11:41:39.574Z,16.00
2022-08-12T11:42:46.370Z,16.00
2022-08-12T11:43:50.783Z,16.00
2022-08-12T11:44:43.036Z,20.00
2022-08-12T11:45:39.384Z,44.00
2022-08-12T11:46:39.339Z,20.00
2022-08-12T11:47:40.454Z,20.00
2022-08-12T11:48:51.467Z,20.00
2022-08-12T11:49:39.199Z,52.00
2022-08-12T11:50:42.132Z,60.00
2022-08-12T11:51:39.792Z,56.00
2022-08-12T11:52:55.417Z,56.00
2022-08-12T11:53:58.162Z,60.00
2022-08-12T11:54:38.963Z,60.00
2022-08-12T11:55:46.797Z,60.00
2022-08-12T11:56:41.940Z,56.00
2022-08-12T11:58:07.163Z,60.00
2022-08-12T12:01:58.837Z,56.00
2022-08-12T12:02:02.281Z,60.00
2022-08-12T12:02:38.630Z,60.00
2022-08-12T12:03:45.674Z,48.00
2022-08-12T12:04:38.507Z,56.00
2022-08-12T12:05:41.679Z,56.00
2022-08-12T12:06:38.404Z,56.00
2022-08-12T12:08:38.949Z,56.00
2022-08-12T12:08:42.635Z,56.00
2022-08-12T12:09:52.915Z,56.00
2022-08-12T12:10:38.214Z,56.00
2022-08-12T12:11:49.435Z,52.00
2022-08-12T12:12:38.119Z,48.00
2022-08-12T12:14:07.979Z,52.00
2022-08-12T12:14:39.854Z,48.00
2022-08-12T12:15:41.194Z,48.00
2022-08-12T12:16:38.087Z,20.00
2022-08-12T12:17:38.416Z,20.00
2022-08-12T12:18:37.845Z,16.00
2022-08-12T12:19:39.809Z,20.00
2022-08-12T12:20:37.744Z,20.00
2022-08-12T12:21:47.272Z,24.00
2022-08-12T12:22:37.698Z,48.00
2022-08-12T12:23:37.605Z,44.00
2022-08-12T12:24:37.557Z,48.00
2022-08-12T12:26:07.577Z,48.00
2022-08-12T12:26:38.494Z,40.00
2022-08-12T12:28:04.219Z,24.00
2022-08-12T12:28:39.475Z,44.00
2022-08-12T12:30:13.615Z,44.00
2022-08-12T12:30:37.444Z,44.00
2022-08-12T12:32:09.940Z,20.00
2022-08-12T12:32:37.182Z,48.00
2022-08-12T12:33:56.731Z,48.00
2022-08-12T12:34:37.091Z,40.00
2022-08-12T12:36:20.011Z,28.00
2022-08-12T12:36:36.998Z,44.00
2022-08-12T12:38:05.660Z,44.00
2022-08-12T12:38:36.901Z,40.00
2022-08-12T12:39:54.787Z,24.00
2022-08-12T12:40:39.626Z,20.00
2022-08-12T12:42:43.677Z,24.00
2022-08-12T12:42:43.678Z,28.00
2022-08-12T12:43:43.036Z,24.00
2022-08-12T12:44:42.208Z,20.00
2022-08-12T12:45:36.575Z,16.00
2022-08-12T12:46:36.524Z,20.00
2022-08-12T12:47:37.210Z,16.00
2022-08-12T12:48:36.431Z,16.00
2022-08-12T12:49:36.392Z,16.00
2022-08-12T12:50:45.242Z,16.00
2022-08-12T12:51:48.988Z,20.00
2022-08-12T12:52:36.244Z,20.00
2022-08-12T12:54:07.560Z,20.00
2022-08-12T12:54:36.151Z,32.00
2022-08-12T12:55:36.135Z,24.00
2022-08-12T12:56:36.056Z,44.00
2022-08-12T12:58:00.266Z,28.00
2022-08-12T12:58:35.962Z,40.00
2022-08-12T12:59:55.953Z,28.00
2022-08-12T13:00:35.869Z,32.00
2022-08-12T13:01:41.764Z,44.00
2022-08-12T13:02:35.774Z,44.00
2022-08-12T13:03:48.729Z,16.00
2022-08-12T13:04:37.340Z,24.00
2022-08-12T13:05:42.084Z,24.00
2022-08-12T13:06:35.587Z,20.00
2022-08-12T13:07:54.401Z,32.00
2022-08-12T13:08:36.158Z,36.00
2022-08-12T13:09:36.233Z,20.00